createdAt,value
2018-09-14T00:01:22.228Z,37.03
2018-09-14T00:03:51.471Z,38.03
2018-09-14T00:06:20.778Z,44.27
2018-09-14T00:08:50.181Z,42.03
2018-09-14T00:11:19.464Z,38.20
2018-09-14T00:13:48.991Z,30.60
2018-09-14T00:16:18.258Z,41.00
2018-09-14T00:18:47.576Z,37.97
2018-09-14T00:21:16.881Z,53.10
2018-09-14T00:23:46.235Z,42.40
2018-09-14T00:26:15.521Z,35.07
2018-09-14T00:28:44.880Z,27.97
2018-09-14T00:31:14.152Z,42.37
2018-09-14T00:33:43.412Z,30.50
2018-09-14T00:36:12.651Z,51.50
2018-09-14T00:38:41.907Z,45.03
2018-09-14T00:41:11.135Z,39.13
2018-09-14T00:43:40.367Z,45.27
2018-09-14T00:46:09.675Z,40.97
2018-09-14T00:48:39.156Z,39.53
2018-09-14T00:51:08.399Z,36.50
2018-09-14T00:53:37.680Z,43.23
2018-09-14T00:56:07.043Z,46.87
2018-09-14T00:58:36.251Z,38.17
2018-09-14T01:01:05.589Z,45.80
2018-09-14T01:03:34.830Z,47.17
2018-09-14T01:06:04.134Z,50.33
2018-09-14T01:08:33.558Z,39.17
2018-09-14T01:11:02.792Z,42.87
2018-09-14T01:13:32.044Z,31.73
2018-09-14T01:16:01.296Z,38.90
2018-09-14T01:18:30.540Z,45.83
2018-09-14T01:20:59.858Z,33.90
2018-09-14T01:23:29.109Z,34.67
2018-09-14T01:25:58.374Z,36.53
2018-09-14T01:28:27.595Z,41.97
2018-09-14T01:30:56.950Z,33.77
2018-09-14T01:33:26.212Z,41.83
2018-09-14T01:36:01.264Z,42.67
2018-09-14T01:38:30.523Z,48.93
2018-09-14T01:40:59.783Z,44.17
2018-09-14T01:43:29.052Z,36.53
2018-09-14T01:45:58.404Z,34.30
2018-09-14T01:48:27.643Z,41.20
2018-09-14T01:50:57.000Z,40.70
2018-09-14T01:53:26.775Z,34.23
2018-09-14T01:55:56.195Z,38.80
2018-09-14T01:58:25.576Z,45.23
2018-09-14T02:00:55.210Z,37.00
2018-09-14T02:03:24.717Z,49.63
2018-09-14T02:05:54.119Z,44.43
2018-09-14T02:08:23.407Z,46.00
2018-09-14T02:10:52.639Z,32.60
2018-09-14T02:13:21.916Z,48.17
2018-09-14T02:15:51.620Z,34.47
2018-09-14T02:18:21.197Z,35.70
2018-09-14T02:20:50.564Z,44.07
2018-09-14T02:23:19.847Z,35.97
2018-09-14T02:25:49.099Z,29.10
2018-09-14T02:28:18.364Z,38.03
2018-09-14T02:30:47.628Z,44.03
2018-09-14T02:33:16.958Z,34.33
2018-09-14T02:35:46.250Z,39.40
2018-09-14T02:38:16.275Z,35.77
2018-09-14T02:40:45.626Z,37.97
2018-09-14T02:43:15.102Z,43.37
2018-09-14T02:45:44.394Z,44.63
2018-09-14T02:48:13.779Z,27.07
2018-09-14T02:50:43.088Z,35.73
2018-09-14T02:53:12.460Z,41.87
2018-09-14T02:55:42.039Z,33.30
2018-09-14T02:58:11.339Z,37.07
2018-09-14T03:00:40.607Z,40.77
2018-09-14T03:03:09.898Z,35.80
2018-09-14T03:05:39.222Z,46.60
2018-09-14T03:08:08.563Z,39.87
2018-09-14T03:10:37.857Z,34.80
2018-09-14T03:13:07.387Z,43.43
2018-09-14T03:15:36.698Z,44.97
2018-09-14T03:18:05.993Z,38.17
2018-09-14T03:20:35.283Z,39.37
2018-09-14T03:23:04.534Z,37.37
2018-09-14T03:25:33.805Z,41.30
2018-09-14T03:28:03.276Z,32.83
2018-09-14T03:30:32.521Z,49.17
2018-09-14T03:33:02.341Z,30.53
2018-09-14T03:35:31.740Z,49.03
2018-09-14T03:38:01.280Z,46.27
2018-09-14T03:40:30.720Z,43.80
2018-09-14T03:43:00.214Z,41.77
2018-09-14T03:45:29.475Z,47.73
2018-09-14T03:47:58.741Z,39.67
2018-09-14T03:50:28.078Z,41.33
2018-09-14T03:52:57.401Z,39.20
2018-09-14T03:55:26.624Z,35.93
2018-09-14T03:57:55.924Z,38.03
2018-09-14T04:00:25.227Z,50.13
2018-09-14T04:02:54.506Z,54.77
2018-09-14T04:05:23.769Z,44.23
2018-09-14T04:07:53.057Z,40.50
2018-09-14T04:10:22.314Z,40.40
2018-09-14T04:12:51.633Z,40.27
2018-09-14T04:15:20.917Z,41.30
2018-09-14T04:17:50.226Z,36.63
2018-09-14T04:20:19.788Z,39.40
2018-09-14T04:22:49.039Z,49.43
2018-09-14T04:25:18.333Z,43.67
2018-09-14T04:27:47.631Z,31.50
2018-09-14T04:30:16.875Z,42.70
2018-09-14T04:32:46.171Z,47.80
2018-09-14T04:35:15.493Z,36.33
2018-09-14T04:37:44.752Z,42.93
2018-09-14T04:40:14.028Z,51.53
2018-09-14T04:42:43.339Z,30.60
2018-09-14T04:45:12.611Z,53.70
2018-09-14T04:47:41.897Z,35.90
2018-09-14T04:50:11.150Z,33.37
2018-09-14T04:52:40.912Z,49.80
2018-09-14T04:55:10.217Z,46.33
2018-09-14T04:57:39.581Z,36.23
2018-09-14T05:00:08.957Z,37.07
2018-09-14T05:02:38.334Z,32.77
2018-09-14T05:05:07.683Z,56.20
2018-09-14T05:07:37.013Z,46.73
2018-09-14T05:10:06.703Z,41.50
2018-09-14T05:12:36.140Z,35.37
2018-09-14T05:15:05.475Z,49.90
2018-09-14T05:17:34.759Z,53.87
2018-09-14T05:20:04.095Z,40.90
2018-09-14T05:22:33.426Z,38.03
2018-09-14T05:25:02.757Z,35.47
2018-09-14T05:27:32.024Z,27.23
2018-09-14T05:30:01.362Z,33.97
2018-09-14T05:32:30.619Z,41.10
2018-09-14T05:34:59.948Z,47.43
2018-09-14T05:37:29.400Z,33.60
2018-09-14T05:39:58.640Z,42.50
2018-09-14T05:42:27.976Z,33.00
2018-09-14T05:44:57.195Z,46.30
2018-09-14T05:47:26.500Z,41.47
2018-09-14T05:49:55.786Z,48.23
2018-09-14T05:52:25.081Z,45.73
2018-09-14T05:54:54.406Z,37.17
2018-09-14T05:57:23.651Z,48.37
2018-09-14T05:59:52.900Z,36.30
2018-09-14T06:02:22.176Z,54.27
2018-09-14T06:04:51.458Z,37.00
2018-09-14T06:07:20.822Z,42.80
2018-09-14T06:09:50.227Z,36.03
2018-09-14T06:12:19.743Z,45.77
2018-09-14T06:14:49.075Z,40.60
2018-09-14T06:17:18.496Z,30.70
2018-09-14T06:19:47.812Z,36.60
2018-09-14T06:22:17.247Z,46.33
2018-09-14T06:24:46.541Z,85.00
2018-09-14T06:27:15.750Z,87.07
2018-09-14T06:29:45.124Z,95.97
2018-09-14T06:32:14.414Z,67.13
2018-09-14T06:34:43.692Z,50.63
2018-09-14T06:37:13.031Z,35.93
2018-09-14T06:39:42.325Z,52.57
2018-09-14T06:42:11.644Z,45.70
2018-09-14T06:44:41.024Z,38.60
2018-09-14T06:47:10.297Z,46.50
2018-09-14T06:49:39.613Z,61.50
2018-09-14T06:52:09.284Z,32.53
2018-09-14T06:54:38.564Z,41.80
2018-09-14T06:57:07.856Z,49.30
2018-09-14T06:59:37.336Z,45.63
2018-09-14T07:02:06.654Z,38.60
2018-09-14T07:04:35.906Z,39.97
2018-09-14T07:07:05.187Z,35.23
2018-09-14T07:09:34.481Z,52.73
2018-09-14T07:12:03.959Z,37.10
2018-09-14T07:14:33.219Z,39.23
2018-09-14T07:17:02.612Z,53.13
2018-09-14T07:19:32.008Z,39.73
2018-09-14T07:22:01.453Z,31.07
2018-09-14T07:24:31.309Z,43.47
2018-09-14T07:27:00.716Z,47.53
2018-09-14T07:29:30.176Z,38.70
2018-09-14T07:31:59.450Z,43.13
2018-09-14T07:34:28.790Z,45.20
2018-09-14T07:36:58.136Z,46.97
2018-09-14T07:39:27.557Z,40.07
2018-09-14T07:41:56.857Z,36.80
2018-09-14T07:44:26.877Z,47.00
2018-09-14T07:46:56.405Z,50.27
2018-09-14T07:49:25.778Z,39.67
2018-09-14T07:51:55.064Z,24.37
2018-09-14T07:54:24.333Z,50.30
2018-09-14T07:56:53.720Z,37.83
2018-09-14T07:59:23.144Z,44.37
2018-09-14T08:01:52.454Z,41.00
2018-09-14T08:04:21.815Z,35.17
2018-09-14T08:06:51.259Z,36.80
2018-09-14T08:09:20.550Z,34.13
2018-09-14T08:11:50.010Z,35.47
2018-09-14T08:14:19.645Z,36.97
2018-09-14T08:16:49.007Z,41.97
2018-09-14T08:19:18.422Z,30.03
2018-09-14T08:21:48.000Z,38.33
2018-09-14T08:24:18.042Z,31.13
2018-09-14T08:26:47.593Z,29.20
2018-09-14T08:29:16.970Z,28.10
2018-09-14T08:31:46.351Z,64.13
2018-09-14T08:34:15.774Z,44.43
2018-09-14T08:36:45.167Z,27.80
2018-09-14T08:39:14.691Z,29.57
2018-09-14T08:41:44.135Z,38.10
2018-09-14T08:44:13.600Z,34.43
2018-09-14T08:46:43.019Z,31.57
2018-09-14T08:49:12.581Z,35.17
2018-09-14T08:51:42.082Z,37.23
2018-09-14T08:54:11.568Z,36.23
2018-09-14T08:56:41.826Z,28.27
2018-09-14T08:59:11.296Z,42.98
2018-09-14T09:01:40.804Z,27.43
2018-09-14T09:04:10.370Z,30.90
2018-09-14T09:06:39.870Z,40.43
2018-09-14T09:09:12.042Z,42.40
2018-09-14T09:11:42.117Z,26.70
2018-09-14T09:14:11.554Z,21.87
2018-09-14T09:16:41.106Z,26.20
2018-09-14T09:19:10.755Z,28.43
2018-09-14T09:21:40.190Z,25.03
2018-09-14T09:24:09.807Z,39.10
2018-09-14T09:26:39.382Z,32.83
2018-09-14T09:29:08.771Z,36.83
2018-09-14T09:31:38.324Z,39.73
2018-09-14T09:34:07.756Z,27.40
2018-09-14T09:36:37.246Z,21.30
2018-09-14T09:39:09.792Z,22.13
2018-09-14T09:41:39.918Z,28.50
2018-09-14T09:44:09.819Z,34.43
2018-09-14T09:46:39.694Z,19.90
2018-09-14T09:49:09.223Z,27.40
2018-09-14T09:51:38.613Z,28.43
2018-09-14T09:54:08.200Z,29.67
2018-09-14T09:56:37.789Z,26.50
2018-09-14T09:59:07.171Z,24.10
2018-09-14T10:01:41.659Z,29.50
2018-09-14T10:04:16.382Z,27.60
2018-09-14T10:06:45.802Z,26.47
2018-09-14T10:09:15.236Z,29.27
2018-09-14T10:11:44.623Z,30.30
2018-09-14T10:14:14.065Z,21.57
2018-09-14T10:16:43.438Z,24.17
2018-09-14T10:19:13.010Z,32.07
2018-09-14T10:21:42.553Z,26.43
2018-09-14T10:24:11.928Z,22.07
2018-09-14T10:26:41.475Z,17.77
2018-09-14T10:29:11.952Z,31.53
2018-09-14T10:31:41.325Z,17.20
2018-09-14T10:34:10.861Z,21.20
2018-09-14T10:36:40.351Z,21.27
2018-09-14T10:39:11.045Z,25.00
2018-09-14T10:41:40.426Z,15.23
2018-09-14T10:44:09.840Z,18.20
2018-09-14T10:46:39.283Z,17.03
2018-09-14T10:49:08.645Z,19.13
2018-09-14T10:51:38.076Z,17.80
2018-09-14T10:54:07.497Z,16.57
2018-09-14T10:56:36.938Z,18.53
2018-09-14T10:59:06.360Z,28.73
2018-09-14T11:01:35.888Z,21.10
2018-09-14T11:04:05.474Z,22.93
2018-09-14T11:06:34.986Z,27.17
2018-09-14T11:09:05.667Z,16.40
2018-09-14T11:11:35.157Z,20.67
2018-09-14T11:14:04.690Z,21.63
2018-09-14T11:16:34.119Z,26.43
2018-09-14T11:19:03.668Z,16.73
2018-09-14T11:21:33.128Z,22.70
2018-09-14T11:24:02.754Z,15.60
2018-09-14T11:26:32.315Z,23.33
2018-09-14T11:29:01.756Z,23.47
2018-09-14T11:31:31.223Z,23.73
2018-09-14T11:34:00.681Z,28.20
2018-09-14T11:36:31.029Z,31.87
2018-09-14T11:39:01.382Z,24.70
2018-09-14T11:41:30.827Z,23.97
2018-09-14T11:44:00.326Z,28.60
2018-09-14T11:46:29.840Z,14.40
2018-09-14T11:48:59.266Z,13.53
2018-09-14T11:51:28.725Z,21.70
2018-09-14T11:53:58.211Z,19.67
2018-09-14T11:56:27.634Z,17.00
2018-09-14T11:58:57.066Z,23.70
2018-09-14T12:01:26.441Z,12.23
2018-09-14T12:03:55.880Z,17.47
2018-09-14T12:06:25.272Z,14.43
2018-09-14T12:08:54.698Z,23.40
2018-09-14T12:11:24.195Z,15.27
2018-09-14T12:13:53.709Z,12.73
2018-09-14T12:16:22.975Z,14.67
2018-09-14T12:18:52.454Z,10.90
2018-09-14T12:21:21.896Z,19.40
2018-09-14T12:23:51.379Z,13.03
2018-09-14T12:26:20.851Z,14.33
2018-09-14T12:28:50.206Z,17.37
2018-09-14T12:31:19.571Z,20.93
2018-09-14T12:33:48.997Z,11.30
2018-09-14T12:36:18.409Z,13.07
2018-09-14T12:38:47.846Z,12.63
2018-09-14T12:41:18.150Z,13.40
2018-09-14T12:43:47.511Z,20.20
2018-09-14T12:46:16.998Z,11.07
2018-09-14T12:48:46.436Z,11.80
2018-09-14T12:51:15.849Z,16.60
2018-09-14T12:53:45.298Z,13.00
2018-09-14T12:56:14.710Z,13.10
2018-09-14T12:58:44.076Z,10.10
2018-09-14T13:01:13.515Z,17.83
2018-09-14T13:03:42.880Z,10.40
2018-09-14T13:06:12.294Z,15.07
2018-09-14T13:08:41.790Z,15.90
2018-09-14T13:11:11.209Z,13.60
2018-09-14T13:13:40.665Z,11.70
2018-09-14T13:16:10.092Z,14.90
2018-09-14T13:18:39.728Z,9.57
2018-09-14T13:21:09.215Z,10.13
2018-09-14T13:23:38.648Z,16.03
2018-09-14T13:26:08.052Z,14.27
2018-09-14T13:28:37.429Z,11.33
2018-09-14T13:31:07.412Z,9.90
2018-09-14T13:33:36.929Z,10.97
2018-09-14T13:36:08.443Z,7.53
2018-09-14T13:38:37.860Z,16.60
2018-09-14T13:41:07.518Z,15.80
2018-09-14T13:43:37.746Z,8.87
2018-09-14T13:46:07.509Z,11.70
2018-09-14T13:48:37.119Z,15.58
2018-09-14T13:51:06.892Z,19.83
2018-09-14T13:53:36.477Z,17.67
2018-09-14T13:56:05.944Z,11.87
2018-09-14T13:58:35.509Z,11.57
2018-09-14T14:01:05.262Z,9.63
2018-09-14T14:03:35.871Z,17.77
2018-09-14T14:06:05.501Z,13.43
2018-09-14T14:08:34.907Z,16.00
2018-09-14T14:11:04.493Z,13.10
2018-09-14T14:13:39.575Z,11.53
2018-09-14T14:16:09.383Z,14.87
2018-09-14T14:18:38.980Z,13.23
2018-09-14T14:23:35.984Z,15.63
2018-09-14T14:26:05.999Z,15.03
2018-09-14T14:28:35.579Z,15.50
2018-09-14T14:34:25.827Z,19.07
2018-09-14T14:36:55.239Z,12.80
2018-09-14T14:39:24.793Z,12.60
2018-09-14T14:41:54.300Z,16.00
2018-09-14T14:44:23.833Z,15.83
2018-09-14T14:46:53.300Z,16.13
2018-09-14T14:49:22.834Z,20.17
2018-09-14T14:51:52.249Z,17.03
2018-09-14T14:54:22.614Z,14.33
2018-09-14T14:56:52.076Z,8.73
2018-09-14T14:59:22.311Z,17.20
2018-09-14T15:01:51.775Z,11.50
2018-09-14T15:04:21.179Z,12.67
2018-09-14T15:06:50.576Z,12.67
2018-09-14T15:09:19.927Z,21.43
2018-09-14T15:11:49.292Z,13.70
2018-09-14T15:14:18.669Z,22.10
2018-09-14T15:16:48.064Z,21.20
2018-09-14T15:19:17.511Z,19.53
2018-09-14T15:21:46.967Z,12.57
2018-09-14T15:24:16.408Z,21.27
2018-09-14T15:26:45.823Z,14.20
2018-09-14T15:29:15.268Z,11.70
2018-09-14T15:31:44.656Z,19.10
2018-09-14T15:34:14.069Z,14.30
2018-09-14T15:36:43.495Z,12.23
2018-09-14T15:39:13.789Z,11.23
2018-09-14T15:41:43.191Z,20.00
2018-09-14T15:44:12.657Z,21.33
2018-09-14T15:46:42.170Z,18.30
2018-09-14T15:49:11.712Z,23.10
2018-09-14T15:51:41.101Z,20.03
2018-09-14T15:54:10.503Z,18.10
2018-09-14T15:56:39.843Z,18.60
2018-09-14T15:59:09.297Z,24.83
2018-09-14T16:01:38.656Z,20.67
2018-09-14T16:04:08.102Z,15.32
2018-09-14T16:06:37.508Z,14.33
2018-09-14T16:09:09.319Z,14.93
2018-09-14T16:11:38.939Z,12.60
2018-09-14T16:14:08.646Z,16.17
2018-09-14T16:16:38.028Z,16.20
2018-09-14T16:19:07.491Z,19.57
2018-09-14T16:21:36.938Z,16.53
2018-09-14T16:24:06.416Z,13.00
2018-09-14T16:26:35.744Z,18.37
2018-09-14T16:29:05.272Z,24.00
2018-09-14T16:31:35.077Z,17.40
2018-09-14T16:34:04.451Z,11.67
2018-09-14T16:36:33.925Z,21.60
2018-09-14T16:39:03.542Z,29.90
2018-09-14T16:41:32.920Z,22.10
2018-09-14T16:44:02.307Z,20.77
2018-09-14T16:46:31.762Z,21.40
2018-09-14T16:49:01.115Z,19.47
2018-09-14T16:51:30.578Z,21.87
2018-09-14T16:54:00.035Z,23.37
2018-09-14T16:56:29.418Z,15.53
2018-09-14T16:58:58.827Z,20.40
2018-09-14T17:01:28.250Z,18.33
2018-09-14T17:03:57.628Z,31.00
2018-09-14T17:06:27.010Z,24.10
2018-09-14T17:08:56.470Z,17.53
2018-09-14T17:11:25.935Z,29.53
2018-09-14T17:13:55.404Z,24.17
2018-09-14T17:16:24.900Z,24.03
2018-09-14T17:18:54.395Z,25.00
2018-09-14T17:21:23.736Z,26.13
2018-09-14T17:23:53.162Z,21.77
2018-09-14T17:26:22.506Z,31.93
2018-09-14T17:28:51.840Z,26.77
2018-09-14T17:31:21.235Z,28.17
2018-09-14T17:33:50.614Z,25.20
2018-09-14T17:36:20.082Z,33.53
2018-09-14T17:38:49.514Z,23.63
2018-09-14T17:41:18.847Z,24.23
2018-09-14T17:43:48.392Z,27.70
2018-09-14T17:46:17.726Z,25.97
2018-09-14T17:48:47.144Z,32.63
2018-09-14T17:51:16.478Z,29.63
2018-09-14T17:53:45.824Z,29.37
2018-09-14T17:56:15.226Z,20.47
2018-09-14T17:58:44.614Z,21.27
2018-09-14T18:01:13.956Z,26.80
2018-09-14T18:03:43.336Z,22.03
2018-09-14T18:06:12.676Z,21.40
2018-09-14T18:08:42.003Z,20.87
2018-09-14T18:11:11.440Z,20.93
2018-09-14T18:13:40.821Z,17.90
2018-09-14T18:16:10.323Z,28.10
2018-09-14T18:18:39.722Z,21.53
2018-09-14T18:21:09.042Z,18.23
2018-09-14T18:23:38.459Z,22.97
2018-09-14T18:26:08.004Z,18.00
2018-09-14T18:28:37.352Z,29.90
2018-09-14T18:31:06.807Z,26.17
2018-09-14T18:33:36.223Z,19.13
2018-09-14T18:36:05.734Z,26.73
2018-09-14T18:38:35.107Z,29.30
2018-09-14T18:41:04.510Z,22.60
2018-09-14T18:43:34.349Z,21.90
2018-09-14T18:46:03.824Z,32.63
2018-09-14T18:48:33.265Z,27.70
2018-09-14T18:51:02.672Z,16.63
2018-09-14T18:53:32.271Z,38.70
2018-09-14T18:56:02.148Z,23.37
2018-09-14T18:58:31.592Z,19.10
2018-09-14T19:01:00.936Z,24.00
2018-09-14T19:03:30.306Z,24.60
2018-09-14T19:05:59.731Z,19.67
2018-09-14T19:08:29.093Z,19.23
2018-09-14T19:10:58.448Z,18.50
2018-09-14T19:13:27.950Z,21.50
2018-09-14T19:15:57.317Z,19.10
2018-09-14T19:18:26.748Z,16.43
2018-09-14T19:20:56.231Z,16.80
2018-09-14T19:23:25.647Z,19.70
2018-09-14T19:25:54.944Z,22.07
2018-09-14T19:28:24.341Z,18.97
2018-09-14T19:30:53.935Z,13.53
2018-09-14T19:33:23.291Z,19.50
2018-09-14T19:35:52.663Z,12.53
2018-09-14T19:38:22.344Z,13.43
2018-09-14T19:40:51.767Z,14.13
2018-09-14T19:43:21.363Z,17.37
2018-09-14T19:45:50.820Z,18.90
2018-09-14T19:48:20.299Z,20.13
2018-09-14T19:50:49.826Z,13.30
2018-09-14T19:53:19.307Z,21.73
2018-09-14T19:55:48.719Z,17.47
2018-09-14T19:58:18.192Z,23.00
2018-09-14T20:00:48.071Z,13.03
2018-09-14T20:03:17.676Z,15.17
2018-09-14T20:05:47.369Z,12.90
2018-09-14T20:08:16.889Z,11.53
2018-09-14T20:10:46.624Z,15.70
2018-09-14T20:13:16.033Z,11.27
2018-09-14T20:15:45.496Z,13.60
2018-09-14T20:18:14.942Z,17.73
2018-09-14T20:20:44.379Z,15.53
2018-09-14T20:23:13.846Z,17.20
2018-09-14T20:25:43.227Z,15.80
2018-09-14T20:28:12.576Z,13.67
2018-09-14T20:30:41.951Z,11.70
2018-09-14T20:33:11.803Z,25.27
2018-09-14T20:35:41.256Z,21.23
2018-09-14T20:38:10.917Z,13.23
2018-09-14T20:40:40.437Z,11.83
2018-09-14T20:43:09.826Z,11.63
2018-09-14T20:45:39.505Z,17.23
2018-09-14T20:48:09.134Z,21.80
2018-09-14T20:50:38.543Z,21.63
2018-09-14T20:53:07.913Z,17.33
2018-09-14T20:55:37.373Z,10.73
2018-09-14T20:58:07.881Z,15.10
2018-09-14T21:00:38.707Z,10.83
2018-09-14T21:03:08.288Z,16.97
2018-09-14T21:05:37.924Z,18.53
2018-09-14T21:08:07.358Z,14.40
2018-09-14T21:10:38.560Z,15.63
2018-09-14T21:13:08.346Z,11.53
2018-09-14T21:15:39.142Z,14.00
2018-09-14T21:18:08.667Z,11.13
2018-09-14T21:20:38.898Z,19.47
2018-09-14T21:23:08.357Z,9.30
2018-09-14T21:25:37.850Z,13.90
2018-09-14T21:28:07.556Z,11.63
2018-09-14T21:30:37.033Z,12.57
2018-09-14T21:33:06.605Z,14.17
2018-09-14T21:35:36.037Z,9.87
2018-09-14T21:38:05.452Z,17.00
2018-09-14T21:40:36.649Z,12.50
2018-09-14T21:43:06.075Z,17.33
2018-09-14T21:45:35.547Z,11.93
2018-09-14T21:48:04.990Z,18.50
2018-09-14T21:50:34.499Z,14.77
2018-09-14T21:53:03.979Z,16.37
2018-09-14T21:55:33.625Z,11.13
2018-09-14T21:58:03.070Z,16.77
2018-09-14T22:00:37.963Z,17.57
2018-09-14T22:03:07.670Z,13.57
2018-09-14T22:05:37.214Z,15.30
2018-09-14T22:08:06.853Z,9.97
2018-09-14T22:10:36.377Z,12.00
2018-09-14T22:13:05.790Z,12.30
2018-09-14T22:15:35.242Z,11.63
2018-09-14T22:18:04.663Z,16.07
2018-09-14T22:20:34.538Z,19.43
2018-09-14T22:23:04.100Z,15.20
2018-09-14T22:25:35.380Z,10.37
2018-09-14T22:28:08.265Z,11.47
2018-09-14T22:30:37.940Z,14.50
2018-09-14T22:33:08.242Z,17.27
2018-09-14T22:35:37.884Z,15.50
2018-09-14T22:38:07.358Z,19.40
2018-09-14T22:40:36.890Z,13.90
2018-09-14T22:43:06.308Z,16.30
2018-09-14T22:45:35.701Z,15.13
2018-09-14T22:48:05.054Z,14.00
2018-09-14T22:50:34.399Z,18.63
2018-09-14T22:53:03.865Z,20.00
2018-09-14T22:55:33.961Z,18.43
2018-09-14T22:58:03.436Z,15.07
2018-09-14T23:00:37.995Z,9.73
2018-09-14T23:03:07.351Z,8.87
2018-09-14T23:05:37.045Z,8.13
2018-09-14T23:08:06.476Z,9.27
2018-09-14T23:10:35.910Z,7.23
2018-09-14T23:13:05.312Z,6.73
2018-09-14T23:15:34.827Z,12.17
2018-09-14T23:18:04.387Z,13.03
2018-09-14T23:20:33.845Z,8.50
2018-09-14T23:23:03.306Z,7.80
2018-09-14T23:25:32.748Z,10.47
2018-09-14T23:28:02.164Z,7.13
2018-09-14T23:30:31.537Z,9.30
2018-09-14T23:33:00.903Z,8.90
2018-09-14T23:35:30.276Z,12.60
2018-09-14T23:37:59.689Z,5.53
2018-09-14T23:40:29.298Z,15.63
2018-09-14T23:42:58.641Z,7.73
2018-09-14T23:45:28.062Z,8.80
2018-09-14T23:47:57.424Z,4.30
2018-09-14T23:50:26.796Z,10.20
2018-09-14T23:52:56.220Z,7.73
2018-09-14T23:55:25.675Z,6.83
2018-09-14T23:57:55.118Z,10.00
